createdAt,value
2023-02-23T00:01:47.222Z,75169.75
2023-02-23T00:04:14.213Z,75173.39
2023-02-23T00:06:41.183Z,75171.77
2023-02-23T00:09:23.943Z,75173.80
2023-02-23T00:11:52.738Z,75177.02
2023-02-23T00:14:20.117Z,75177.02
2023-02-23T00:16:47.107Z,75180.66
2023-02-23T00:19:14.350Z,75190.35
2023-02-23T00:21:41.551Z,75193.59
2023-02-23T00:24:11.146Z,75193.99
2023-02-23T00:26:39.269Z,75191.98
2023-02-23T00:29:10.554Z,75185.50
2023-02-23T00:31:38.269Z,75185.52
2023-02-23T00:34:05.781Z,75189.55
2023-02-23T00:36:34.973Z,75194.39
2023-02-23T00:39:20.781Z,75197.63
2023-02-23T00:41:51.952Z,75204.10
2023-02-23T00:44:21.073Z,75206.92
2023-02-23T00:46:50.800Z,75211.37
2023-02-23T00:49:19.529Z,75214.20
2023-02-23T00:51:46.666Z,75218.64
2023-02-23T00:54:15.860Z,75221.88
2023-02-23T00:56:43.054Z,75225.52
2023-02-23T00:59:11.603Z,75229.14
2023-02-23T01:01:41.190Z,75230.77
2023-02-23T01:04:09.283Z,75233.59
2023-02-23T01:06:37.242Z,75235.20
2023-02-23T01:09:14.204Z,75234.00
2023-02-23T01:11:41.671Z,75238.85
2023-02-23T01:14:09.929Z,75238.85
2023-02-23T01:16:38.330Z,75237.23
2023-02-23T01:19:06.681Z,75236.42
2023-02-23T01:21:37.169Z,75236.83
2023-02-23T01:24:05.079Z,75235.61
2023-02-23T01:26:38.046Z,75229.95
2023-02-23T01:29:14.616Z,75224.70
2023-02-23T01:31:47.693Z,75220.66
2023-02-23T01:34:21.030Z,75226.31
2023-02-23T01:36:48.468Z,75232.38
2023-02-23T01:39:18.041Z,75240.86
2023-02-23T01:41:45.576Z,75242.48
2023-02-23T01:44:12.514Z,75246.12
2023-02-23T01:46:43.176Z,75251.37
2023-02-23T01:49:19.505Z,75255.01
2023-02-23T01:51:51.909Z,75254.20
2023-02-23T01:54:24.044Z,75258.24
2023-02-23T01:56:57.736Z,75261.48
2023-02-23T01:59:37.640Z,75263.90
2023-02-23T02:02:04.886Z,75265.52
2023-02-23T02:04:43.843Z,75271.58
2023-02-23T02:07:17.837Z,75271.58
2023-02-23T02:10:08.186Z,75267.94
2023-02-23T02:12:35.138Z,75261.07
2023-02-23T02:15:05.089Z,75259.86
2023-02-23T02:17:56.396Z,75255.02
2023-02-23T02:20:42.377Z,75249.35
2023-02-23T02:23:30.869Z,75248.14
2023-02-23T02:26:23.800Z,75245.31
2023-02-23T02:28:50.732Z,75233.59
2023-02-23T02:31:39.454Z,75227.13
2023-02-23T02:34:37.199Z,75230.36
2023-02-23T02:37:18.794Z,75233.99
2023-02-23T02:40:18.028Z,75241.27
2023-02-23T02:43:08.048Z,75252.98
2023-02-23T02:45:52.817Z,75261.07
2023-02-23T02:48:46.662Z,75271.57
2023-02-23T02:51:25.436Z,75280.46
2023-02-23T02:54:06.039Z,75282.08
2023-02-23T02:56:39.759Z,75283.70
2023-02-23T02:59:30.183Z,75289.36
2023-02-23T03:02:16.237Z,75292.58
2023-02-23T03:05:02.367Z,75294.20
2023-02-23T03:07:57.121Z,75295.41
2023-02-23T03:10:48.548Z,75297.84
2023-02-23T03:13:40.001Z,75301.88
2023-02-23T03:17:04.570Z,75306.73
2023-02-23T03:19:57.561Z,75309.96
2023-02-23T03:23:22.620Z,75315.21
2023-02-23T03:26:32.352Z,75316.42
2023-02-23T03:29:19.277Z,75316.42
2023-02-23T03:32:17.451Z,75318.04
2023-02-23T03:35:08.388Z,75320.88
2023-02-23T03:38:10.614Z,75324.91
2023-02-23T03:40:59.931Z,75327.73
2023-02-23T03:43:55.467Z,75330.97
2023-02-23T03:46:45.129Z,75335.42
2023-02-23T03:49:32.534Z,75339.86
2023-02-23T03:52:25.533Z,75342.70
2023-02-23T03:55:18.997Z,75351.18
2023-02-23T03:58:07.042Z,75358.45
2023-02-23T04:00:58.966Z,75362.89
2023-02-23T04:03:46.846Z,75362.89
2023-02-23T04:06:35.278Z,75360.88
2023-02-23T04:09:24.844Z,75359.27
2023-02-23T04:12:22.591Z,75353.20
2023-02-23T04:15:06.567Z,75351.59
2023-02-23T04:17:34.042Z,75349.56
2023-02-23T04:20:01.062Z,75344.30
2023-02-23T04:22:28.159Z,75337.44
2023-02-23T04:24:55.799Z,75331.77
2023-02-23T04:27:22.857Z,75323.30
2023-02-23T04:29:49.843Z,75317.23
2023-02-23T04:32:20.356Z,75312.39
2023-02-23T04:34:47.497Z,75316.42
2023-02-23T04:37:15.949Z,75320.47
2023-02-23T04:39:47.886Z,75320.47
2023-02-23T04:42:18.479Z,75324.50
2023-02-23T04:44:45.719Z,75322.89
2023-02-23T04:47:15.300Z,75319.66
2023-02-23T04:49:43.561Z,75320.46
2023-02-23T04:52:10.696Z,75324.51
2023-02-23T04:54:41.342Z,75330.57
2023-02-23T04:57:09.514Z,75335.82
2023-02-23T04:59:36.932Z,75343.91
2023-02-23T05:02:04.153Z,75348.76
2023-02-23T05:04:31.491Z,75353.60
2023-02-23T05:06:58.485Z,75353.20
2023-02-23T05:09:25.557Z,75352.80
2023-02-23T05:11:52.554Z,75357.23
2023-02-23T05:14:19.521Z,75362.09
2023-02-23T05:16:46.581Z,75363.30
2023-02-23T05:19:13.681Z,75366.94
2023-02-23T05:21:41.333Z,75371.38
2023-02-23T05:24:08.747Z,75376.64
2023-02-23T05:26:36.435Z,75378.66
2023-02-23T05:29:03.871Z,75383.50
2023-02-23T05:31:30.984Z,75382.30
2023-02-23T05:33:58.027Z,75379.86
2023-02-23T05:36:25.002Z,75381.89
2023-02-23T05:38:52.020Z,75380.67
2023-02-23T05:41:21.397Z,75383.91
2023-02-23T05:43:51.735Z,75382.30
2023-02-23T05:46:25.488Z,75380.27
2023-02-23T05:48:58.523Z,75376.63
2023-02-23T05:51:25.626Z,75377.85
2023-02-23T05:53:52.557Z,75373.80
2023-02-23T05:56:20.649Z,75362.90
2023-02-23T05:58:48.863Z,75359.26
2023-02-23T06:01:17.203Z,75358.05
2023-02-23T06:03:45.164Z,75353.61
2023-02-23T06:06:12.698Z,75349.56
2023-02-23T06:08:39.885Z,75347.14
2023-02-23T06:11:07.336Z,75347.14
2023-02-23T06:13:34.584Z,75344.31
2023-02-23T06:16:02.351Z,75339.87
2023-02-23T06:18:29.895Z,75336.63
2023-02-23T06:21:00.574Z,75326.52
2023-02-23T06:23:29.037Z,75315.21
2023-02-23T06:25:56.420Z,75303.90
2023-02-23T06:28:23.581Z,75291.78
2023-02-23T06:30:54.492Z,75283.30
2023-02-23T06:33:22.134Z,75276.42
2023-02-23T06:35:49.231Z,75267.13
2023-02-23T06:38:16.411Z,75257.43
2023-02-23T06:40:43.442Z,75254.60
2023-02-23T06:43:10.966Z,75244.91
2023-02-23T06:45:38.719Z,75236.42
2023-02-23T06:48:06.261Z,75219.86
2023-02-23T06:50:33.265Z,75208.94
2023-02-23T06:53:00.216Z,75194.39
2023-02-23T06:55:27.216Z,75174.20
2023-02-23T06:57:54.890Z,75154.40
2023-02-23T07:00:22.362Z,75129.74
2023-02-23T07:02:49.510Z,75101.86
2023-02-23T07:05:16.803Z,75085.70
2023-02-23T07:07:44.969Z,75075.20
2023-02-23T07:10:12.374Z,75064.70
2023-02-23T07:12:39.410Z,75054.59
2023-02-23T07:15:07.253Z,75041.25
2023-02-23T07:17:34.304Z,75023.48
2023-02-23T07:20:02.198Z,75002.88
2023-02-23T07:22:30.886Z,74978.64
2023-02-23T07:24:57.870Z,74967.33
2023-02-23T07:27:24.902Z,74953.58
2023-02-23T07:29:51.946Z,74935.00
2023-02-23T07:32:19.122Z,74911.16
2023-02-23T07:34:47.206Z,74887.73
2023-02-23T07:37:14.454Z,74869.14
2023-02-23T07:39:41.479Z,74852.17
2023-02-23T07:42:08.455Z,74852.58
2023-02-23T07:44:35.925Z,74841.26
2023-02-23T07:47:03.342Z,74816.62
2023-02-23T07:49:30.815Z,74795.60
2023-02-23T07:51:58.151Z,74772.17
2023-02-23T07:54:26.019Z,74753.98
2023-02-23T07:56:53.127Z,74755.20
2023-02-23T07:59:21.276Z,74741.06
2023-02-23T08:01:48.290Z,74720.46
2023-02-23T08:04:15.218Z,74699.45
2023-02-23T08:06:42.804Z,74678.03
2023-02-23T08:09:11.246Z,74665.92
2023-02-23T08:11:38.246Z,74660.66
2023-02-23T08:14:05.267Z,74651.78
2023-02-23T08:16:33.091Z,74648.14
2023-02-23T08:19:00.955Z,74621.89
2023-02-23T08:21:29.641Z,74602.08
2023-02-23T08:23:57.680Z,74593.60
2023-02-23T08:26:25.149Z,74575.02
2023-02-23T08:28:53.743Z,74561.29
2023-02-23T08:31:23.309Z,74548.35
2023-02-23T08:33:51.453Z,74536.23
2023-02-23T08:36:20.089Z,74533.00
2023-02-23T08:38:47.377Z,74531.39
2023-02-23T08:41:15.213Z,74534.21
2023-02-23T08:43:42.447Z,74522.09
2023-02-23T08:46:11.241Z,74507.95
2023-02-23T08:48:39.918Z,74497.86
2023-02-23T08:51:07.619Z,74484.92
2023-02-23T08:53:35.311Z,74465.94
2023-02-23T08:56:05.564Z,74456.24
2023-02-23T08:58:33.537Z,74445.34
2023-02-23T09:01:01.581Z,74430.38
2023-02-23T09:03:30.137Z,74412.61
2023-02-23T09:06:04.060Z,74399.68
2023-02-23T09:08:31.098Z,74386.36
2023-02-23T09:10:58.044Z,74373.42
2023-02-23T09:13:25.021Z,74363.73
2023-02-23T09:15:51.991Z,74346.77
2023-02-23T09:18:19.006Z,74340.30
2023-02-23T09:20:46.016Z,74316.46
2023-02-23T09:23:13.046Z,74301.11
2023-02-23T09:25:44.009Z,74289.80
2023-02-23T09:28:13.106Z,74272.43
2023-02-23T09:30:41.830Z,74255.06
2023-02-23T09:33:09.911Z,74236.88
2023-02-23T09:35:37.116Z,74230.42
2023-02-23T09:38:06.387Z,74219.11
2023-02-23T09:40:46.666Z,74203.35
2023-02-23T09:43:16.339Z,74199.31
2023-02-23T09:45:57.769Z,74203.35
2023-02-23T09:48:27.980Z,74188.80
2023-02-23T09:50:57.359Z,74174.67
2023-02-23T09:53:31.193Z,74163.36
2023-02-23T09:56:00.380Z,74148.41
2023-02-23T09:58:32.003Z,74132.25
2023-02-23T10:01:04.897Z,74126.20
2023-02-23T10:03:37.167Z,74108.42
2023-02-23T10:06:08.707Z,74091.86
2023-02-23T10:08:48.433Z,74080.15
2023-02-23T10:11:51.038Z,74061.98
2023-02-23T10:14:46.875Z,74049.44
2023-02-23T10:17:16.773Z,74030.86
2023-02-23T10:20:22.665Z,74020.36
2023-02-23T10:22:50.761Z,74011.47
2023-02-23T10:25:25.127Z,74009.45
2023-02-23T10:27:55.268Z,74010.66
2023-02-23T10:30:28.998Z,74002.59
2023-02-23T10:33:04.123Z,73987.23
2023-02-23T10:35:31.665Z,73986.84
2023-02-23T10:38:00.560Z,73973.91
2023-02-23T10:40:31.619Z,73963.01
2023-02-23T10:43:01.920Z,73948.86
2023-02-23T10:45:33.944Z,73937.15
2023-02-23T10:48:07.054Z,73932.70
2023-02-23T10:50:36.574Z,73937.55
2023-02-23T10:53:16.038Z,73918.17
2023-02-23T10:55:47.779Z,73893.52
2023-02-23T10:58:18.535Z,73881.81
2023-02-23T11:01:04.697Z,73883.02
2023-02-23T11:03:43.009Z,73865.66
2023-02-23T11:06:32.712Z,73849.49
2023-02-23T11:09:24.850Z,73836.98
2023-02-23T11:12:02.072Z,73823.64
2023-02-23T11:14:30.903Z,73815.98
2023-02-23T11:16:59.802Z,73806.27
2023-02-23T11:19:34.111Z,73786.48
2023-02-23T11:22:01.421Z,73766.30
2023-02-23T11:24:33.435Z,73756.98
2023-02-23T11:27:07.412Z,73752.55
2023-02-23T11:29:38.693Z,73738.82
2023-02-23T11:32:20.727Z,73724.68
2023-02-23T11:35:08.540Z,73707.31
2023-02-23T11:37:36.743Z,73701.66
2023-02-23T11:40:21.651Z,73699.23
2023-02-23T11:43:06.784Z,73693.18
2023-02-23T11:45:44.138Z,73685.10
2023-02-23T11:48:21.850Z,73672.98
2023-02-23T11:50:49.711Z,73672.17
2023-02-23T11:53:28.020Z,73659.65
2023-02-23T11:56:02.148Z,73658.04
2023-02-23T11:58:51.090Z,73649.96
2023-02-23T12:01:23.374Z,73647.94
2023-02-23T12:03:56.830Z,73641.48
2023-02-23T12:06:30.703Z,73637.03
2023-02-23T12:09:12.468Z,73639.46
2023-02-23T12:11:48.419Z,73630.58
2023-02-23T12:14:40.631Z,73634.61
2023-02-23T12:17:38.223Z,73624.92
2023-02-23T12:20:14.891Z,73614.42
2023-02-23T12:22:47.420Z,73606.34
2023-02-23T12:25:29.421Z,73595.43
2023-02-23T12:28:18.785Z,73572.81
2023-02-23T12:30:54.213Z,73560.29
2023-02-23T12:33:29.607Z,73541.71
2023-02-23T12:36:03.364Z,73537.67
2023-02-23T12:38:52.117Z,73531.21
2023-02-23T12:41:39.628Z,73518.69
2023-02-23T12:44:31.090Z,73516.27
2023-02-23T12:47:04.407Z,73511.02
2023-02-23T12:49:38.798Z,73506.98
2023-02-23T12:52:39.457Z,73492.45
2023-02-23T12:55:11.544Z,73499.71
2023-02-23T12:58:05.676Z,73506.17
2023-02-23T13:00:52.586Z,73505.77
2023-02-23T13:03:29.124Z,73501.33
2023-02-23T13:06:11.088Z,73489.21
2023-02-23T13:08:56.638Z,73472.25
2023-02-23T13:11:48.293Z,73458.11
2023-02-23T13:14:29.275Z,73455.69
2023-02-23T13:17:06.543Z,73457.70
2023-02-23T13:19:44.311Z,73445.18
2023-02-23T13:22:30.163Z,73439.52
2023-02-23T13:25:04.549Z,73432.26
2023-02-23T13:27:40.034Z,73422.98
2023-02-23T13:30:11.499Z,73430.24
2023-02-23T13:32:39.114Z,73436.30
2023-02-23T13:35:13.170Z,73434.68
2023-02-23T13:37:45.640Z,73437.11
2023-02-23T13:40:29.336Z,73432.66
2023-02-23T13:43:16.960Z,73426.20
2023-02-23T13:45:58.792Z,73418.92
2023-02-23T13:48:56.239Z,73407.63
2023-02-23T13:51:30.682Z,73412.47
2023-02-23T13:53:59.307Z,73412.48
2023-02-23T13:56:29.175Z,73411.66
2023-02-23T13:59:00.588Z,73416.91
2023-02-23T14:01:44.755Z,73423.77
2023-02-23T14:04:21.366Z,73427.41
2023-02-23T14:07:28.130Z,73430.23
2023-02-23T14:09:58.804Z,73429.44
2023-02-23T14:12:39.635Z,73434.68
2023-02-23T14:15:24.839Z,73442.77
2023-02-23T14:18:00.226Z,73452.05
2023-02-23T14:20:39.384Z,73448.82
2023-02-23T14:23:17.838Z,73445.59
2023-02-23T14:25:46.575Z,73444.77
2023-02-23T14:28:30.147Z,73445.98
2023-02-23T14:31:08.093Z,73450.84
2023-02-23T14:33:37.653Z,73450.03
2023-02-23T14:36:23.355Z,73448.41
2023-02-23T14:39:13.694Z,73453.66
2023-02-23T14:41:52.825Z,73460.54
2023-02-23T14:44:29.898Z,73469.83
2023-02-23T14:47:08.360Z,73479.92
2023-02-23T14:49:39.952Z,73488.00
2023-02-23T14:52:28.511Z,73491.23
2023-02-23T14:55:21.039Z,73505.36
2023-02-23T14:57:49.178Z,73505.77
2023-02-23T15:00:23.985Z,73516.27
2023-02-23T15:03:08.736Z,73518.70
2023-02-23T15:05:42.481Z,73525.16
2023-02-23T15:08:14.895Z,73533.23
2023-02-23T15:10:44.546Z,73537.67
2023-02-23T15:13:31.151Z,73540.10
2023-02-23T15:16:03.281Z,73542.12
2023-02-23T15:18:36.995Z,73551.40
2023-02-23T15:21:20.045Z,73563.13
2023-02-23T15:24:24.067Z,73575.64
2023-02-23T15:26:51.992Z,73591.39
2023-02-23T15:29:22.294Z,73606.34
2023-02-23T15:31:52.381Z,73622.90
2023-02-23T15:34:24.291Z,73629.36
2023-02-23T15:37:01.190Z,73642.29
2023-02-23T15:40:09.658Z,73651.98
2023-02-23T15:42:44.136Z,73665.71
2023-02-23T15:45:29.573Z,73682.27
2023-02-23T15:48:04.986Z,73696.82
2023-02-23T15:50:37.290Z,73712.58
2023-02-23T15:53:19.122Z,73728.73
2023-02-23T15:55:47.350Z,73744.88
2023-02-23T15:58:24.369Z,73765.48
2023-02-23T16:00:58.008Z,73776.39
2023-02-23T16:03:37.495Z,73790.13
2023-02-23T16:06:25.813Z,73803.86
2023-02-23T16:08:58.153Z,73823.23
2023-02-23T16:11:26.386Z,73843.84
2023-02-23T16:13:54.462Z,73856.77
2023-02-23T16:16:24.826Z,73872.12
2023-02-23T16:18:54.881Z,73886.66
2023-02-23T16:21:24.487Z,73899.98
2023-02-23T16:23:54.882Z,73915.74
2023-02-23T16:26:33.936Z,73925.44
2023-02-23T16:29:04.009Z,73934.33
2023-02-23T16:31:44.508Z,73942.80
2023-02-23T16:34:47.775Z,73955.33
2023-02-23T16:37:22.582Z,73971.08
2023-02-23T16:39:49.692Z,73978.77
2023-02-23T16:42:33.227Z,73989.66
2023-02-23T16:45:01.545Z,74001.38
2023-02-23T16:47:35.813Z,74015.91
2023-02-23T16:50:21.095Z,74030.05
2023-02-23T16:52:53.758Z,74045.00
2023-02-23T16:55:27.298Z,74059.55
2023-02-23T16:57:55.934Z,74069.24
2023-02-23T17:00:29.240Z,74078.13
2023-02-23T17:02:57.696Z,74095.49
2023-02-23T17:05:24.891Z,74108.02
2023-02-23T17:07:53.221Z,74118.52
2023-02-23T17:10:46.242Z,74120.55
2023-02-23T17:13:22.711Z,74125.38
2023-02-23T17:15:53.043Z,74125.39
2023-02-23T17:18:31.050Z,74133.47
2023-02-23T17:21:01.631Z,74143.56
2023-02-23T17:23:37.744Z,74145.59
2023-02-23T17:26:10.875Z,74150.84
2023-02-23T17:28:39.967Z,74154.88
2023-02-23T17:31:07.503Z,74161.73
2023-02-23T17:33:36.580Z,74162.14
2023-02-23T17:36:05.622Z,74166.19
2023-02-23T17:38:35.291Z,74170.23
2023-02-23T17:41:12.755Z,74173.86
2023-02-23T17:43:40.142Z,74179.11
2023-02-23T17:46:08.073Z,74186.39
2023-02-23T17:48:35.334Z,74192.45
2023-02-23T17:51:09.638Z,74195.68
2023-02-23T17:53:36.647Z,74202.13
2023-02-23T17:56:04.364Z,74209.02
2023-02-23T17:58:31.670Z,74209.81
2023-02-23T18:01:02.189Z,74213.86
2023-02-23T18:03:31.556Z,74217.09
2023-02-23T18:06:08.384Z,74218.70
2023-02-23T18:08:37.916Z,74222.34
2023-02-23T18:11:05.343Z,74226.78
2023-02-23T18:13:35.836Z,74228.80
2023-02-23T18:16:08.494Z,74230.41
2023-02-23T18:18:41.804Z,74234.46
2023-02-23T18:21:14.862Z,74240.52
2023-02-23T18:23:42.146Z,74245.36
2023-02-23T18:26:21.094Z,74251.83
2023-02-23T18:28:48.412Z,74255.46
2023-02-23T18:31:24.768Z,74259.90
2023-02-23T18:33:55.788Z,74263.54
2023-02-23T18:36:29.317Z,74270.01
2023-02-23T18:38:59.269Z,74278.09
2023-02-23T18:41:30.266Z,74284.95
2023-02-23T18:44:01.668Z,74291.83
2023-02-23T18:46:29.730Z,74297.88
2023-02-23T18:48:56.936Z,74305.56
2023-02-23T18:51:25.162Z,74318.48
2023-02-23T18:53:53.097Z,74328.58
2023-02-23T18:56:27.488Z,74339.89
2023-02-23T18:58:58.639Z,74354.04
2023-02-23T19:01:32.844Z,74360.09
2023-02-23T19:04:02.016Z,74369.39
2023-02-23T19:06:30.033Z,74375.44
2023-02-23T19:08:59.453Z,74383.12
2023-02-23T19:11:30.030Z,74394.02
2023-02-23T19:14:00.443Z,74402.11
2023-02-23T19:16:30.757Z,74408.16
2023-02-23T19:18:59.580Z,74415.04
2023-02-23T19:21:27.555Z,74417.46
2023-02-23T19:23:57.981Z,74425.54
2023-02-23T19:26:26.123Z,74432.01
2023-02-23T19:28:53.478Z,74442.50
2023-02-23T19:31:23.883Z,74451.40
2023-02-23T19:33:53.485Z,74456.65
2023-02-23T19:36:23.165Z,74462.30
2023-02-23T19:38:50.336Z,74468.77
2023-02-23T19:41:19.724Z,74476.85
2023-02-23T19:43:47.058Z,74481.29
2023-02-23T19:46:16.742Z,74487.75
2023-02-23T19:48:51.254Z,74495.83
2023-02-23T19:51:20.541Z,74499.47
2023-02-23T19:53:48.198Z,74501.48
2023-02-23T19:56:16.721Z,74507.95
2023-02-23T19:58:46.127Z,74516.44
2023-02-23T20:01:17.130Z,74522.09
2023-02-23T20:03:54.685Z,74524.92
2023-02-23T20:06:27.296Z,74534.21
2023-02-23T20:09:01.943Z,74543.50
2023-02-23T20:11:29.595Z,74550.78
2023-02-23T20:13:57.309Z,74561.28
2023-02-23T20:16:29.249Z,74565.32
2023-02-23T20:18:57.599Z,74572.19
2023-02-23T20:21:26.337Z,74574.20
2023-02-23T20:23:55.407Z,74584.72
2023-02-23T20:26:28.678Z,74589.56
2023-02-23T20:28:57.183Z,74594.41
2023-02-23T20:31:31.423Z,74600.47
2023-02-23T20:34:02.643Z,74601.68
2023-02-23T20:36:29.853Z,74608.15
2023-02-23T20:38:57.031Z,74614.20
2023-02-23T20:41:27.456Z,74615.42
2023-02-23T20:43:55.697Z,74613.80
2023-02-23T20:46:23.734Z,74616.64
2023-02-23T20:48:50.926Z,74615.41
2023-02-23T20:51:18.686Z,74616.64
2023-02-23T20:53:49.261Z,74621.08
2023-02-23T20:56:21.644Z,74623.90
2023-02-23T20:58:49.515Z,74626.33
2023-02-23T21:01:21.943Z,74631.58
2023-02-23T21:03:52.843Z,74636.42
2023-02-23T21:06:22.430Z,74642.48
2023-02-23T21:08:50.464Z,74647.73
2023-02-23T21:11:21.411Z,74652.99
2023-02-23T21:13:48.685Z,74656.63
2023-02-23T21:16:18.288Z,74665.92
2023-02-23T21:18:45.707Z,74675.21
2023-02-23T21:21:15.087Z,74680.46
2023-02-23T21:23:45.318Z,74688.14
2023-02-23T21:26:15.524Z,74694.20
2023-02-23T21:28:44.831Z,74703.90
2023-02-23T21:31:13.389Z,74709.55
2023-02-23T21:33:42.587Z,74713.19
2023-02-23T21:36:10.654Z,74715.61
2023-02-23T21:38:39.481Z,74719.25
2023-02-23T21:41:07.357Z,74726.12
2023-02-23T21:43:36.404Z,74730.55
2023-02-23T21:46:11.787Z,74735.81
2023-02-23T21:48:39.262Z,74745.52
2023-02-23T21:51:11.038Z,74749.95
2023-02-23T21:53:39.171Z,74753.59
2023-02-23T21:56:11.010Z,74758.44
2023-02-23T21:58:39.666Z,74762.07
2023-02-23T22:01:11.859Z,74768.54
2023-02-23T22:03:44.486Z,74775.41
2023-02-23T22:06:16.978Z,74778.23
2023-02-23T22:08:45.107Z,74785.10
2023-02-23T22:11:16.821Z,74790.75
2023-02-23T22:13:45.229Z,74798.44
2023-02-23T22:16:15.050Z,74804.09
2023-02-23T22:18:42.742Z,74805.30
2023-02-23T22:21:13.913Z,74812.58
2023-02-23T22:23:46.369Z,74814.19
2023-02-23T22:26:27.649Z,74817.42
2023-02-23T22:28:54.632Z,74823.08
2023-02-23T22:31:21.975Z,74827.52
2023-02-23T22:33:49.434Z,74827.92
2023-02-23T22:36:17.894Z,74830.76
2023-02-23T22:38:45.976Z,74833.98
2023-02-23T22:41:13.382Z,74836.02
2023-02-23T22:43:45.220Z,74838.03
2023-02-23T22:46:14.882Z,74837.23
2023-02-23T22:48:46.246Z,74839.23
2023-02-23T22:51:15.411Z,74843.28
2023-02-23T22:53:43.497Z,74845.70
2023-02-23T22:56:12.168Z,74839.23
2023-02-23T22:58:41.483Z,74843.67
2023-02-23T23:01:11.406Z,74847.73
2023-02-23T23:03:47.258Z,74852.17
2023-02-23T23:06:17.459Z,74856.21
2023-02-23T23:08:48.577Z,74860.25
2023-02-23T23:11:19.318Z,74866.31
2023-02-23T23:13:53.014Z,74872.77
2023-02-23T23:16:31.581Z,74874.39
2023-02-23T23:19:11.327Z,74880.86
2023-02-23T23:21:40.531Z,74886.92
2023-02-23T23:24:09.378Z,74889.74
2023-02-23T23:26:40.095Z,74893.38
2023-02-23T23:29:10.702Z,74897.42
2023-02-23T23:31:39.780Z,74900.65
2023-02-23T23:34:10.270Z,74907.12
2023-02-23T23:36:45.564Z,74909.95
2023-02-23T23:39:15.486Z,74916.41
2023-02-23T23:41:47.264Z,74913.17
2023-02-23T23:44:21.161Z,74910.75
2023-02-23T23:46:50.198Z,74910.75
2023-02-23T23:49:20.149Z,74908.73
2023-02-23T23:51:49.614Z,74907.12
2023-02-23T23:54:20.994Z,74906.71
2023-02-23T23:56:49.101Z,74902.27
2023-02-23T23:59:19.722Z,74893.79
